createdAt,value
2018-05-17T00:01:23.897Z,13.10
2018-05-17T00:03:49.777Z,13.16
2018-05-17T00:06:15.669Z,13.04
2018-05-17T00:08:41.560Z,13.11
2018-05-17T00:11:07.404Z,13.20
2018-05-17T00:13:33.272Z,13.18
2018-05-17T00:15:59.149Z,13.13
2018-05-17T00:18:25.008Z,13.16
2018-05-17T00:20:50.841Z,12.98
2018-05-17T00:23:16.709Z,13.23
2018-05-17T00:25:42.594Z,13.29
2018-05-17T00:28:08.484Z,13.21
2018-05-17T00:30:34.341Z,13.25
2018-05-17T00:33:00.193Z,13.28
2018-05-17T00:35:26.032Z,13.23
2018-05-17T00:37:51.937Z,13.10
2018-05-17T00:40:17.769Z,12.92
2018-05-17T00:42:43.616Z,12.89
2018-05-17T00:45:09.467Z,12.77
2018-05-17T00:47:35.318Z,13.13
2018-05-17T00:50:01.144Z,13.17
2018-05-17T00:52:27.054Z,13.23
2018-05-17T00:54:52.850Z,13.03
2018-05-17T00:57:18.721Z,13.17
2018-05-17T00:59:44.585Z,13.00
2018-05-17T01:02:10.461Z,12.85
2018-05-17T01:04:36.317Z,13.01
2018-05-17T01:07:02.197Z,13.13
2018-05-17T01:09:28.061Z,13.12
2018-05-17T01:11:53.939Z,12.94
2018-05-17T01:14:19.788Z,12.85
2018-05-17T01:16:45.642Z,12.88
2018-05-17T01:19:11.473Z,12.83
2018-05-17T01:21:37.345Z,12.71
2018-05-17T01:24:03.221Z,13.02
2018-05-17T01:26:29.071Z,13.21
2018-05-17T01:28:54.914Z,13.22
2018-05-17T01:31:20.729Z,13.05
2018-05-17T01:33:46.567Z,13.01
2018-05-17T01:36:12.392Z,12.78
2018-05-17T01:38:38.293Z,12.96
2018-05-17T01:41:04.141Z,12.95
2018-05-17T01:43:29.978Z,13.13
2018-05-17T01:45:55.848Z,13.20
2018-05-17T01:48:21.729Z,13.18
2018-05-17T01:50:47.575Z,13.12
2018-05-17T01:53:14.401Z,12.85
2018-05-17T01:55:40.268Z,12.67
2018-05-17T01:58:06.106Z,12.65
2018-05-17T02:00:31.964Z,12.45
2018-05-17T02:02:57.850Z,12.53
2018-05-17T02:05:23.667Z,12.66
2018-05-17T02:07:49.490Z,12.63
2018-05-17T02:10:15.331Z,12.90
2018-05-17T02:12:41.173Z,12.95
2018-05-17T02:15:07.093Z,13.08
2018-05-17T02:17:32.932Z,13.05
2018-05-17T02:19:58.791Z,12.95
2018-05-17T02:22:24.637Z,12.58
2018-05-17T02:24:50.492Z,12.44
2018-05-17T02:27:16.349Z,12.29
2018-05-17T02:29:42.188Z,12.43
2018-05-17T02:32:08.053Z,12.39
2018-05-17T02:34:33.921Z,12.49
2018-05-17T02:36:59.817Z,12.50
2018-05-17T02:39:25.698Z,12.64
2018-05-17T02:41:51.568Z,12.67
2018-05-17T02:44:17.406Z,12.49
2018-05-17T02:46:43.289Z,12.56
2018-05-17T02:49:09.139Z,12.64
2018-05-17T02:51:35.003Z,12.39
2018-05-17T02:54:00.857Z,12.42
2018-05-17T02:56:26.705Z,12.44
2018-05-17T02:58:52.589Z,12.43
2018-05-17T03:01:18.485Z,12.77
2018-05-17T03:03:44.346Z,12.78
2018-05-17T03:06:10.225Z,12.74
2018-05-17T03:08:36.101Z,12.79
2018-05-17T03:11:01.983Z,12.97
2018-05-17T03:13:27.845Z,12.92
2018-05-17T03:15:53.700Z,12.90
2018-05-17T03:18:20.010Z,13.04
2018-05-17T03:20:45.865Z,12.93
2018-05-17T03:23:11.730Z,12.89
2018-05-17T03:25:37.592Z,12.79
2018-05-17T03:28:03.511Z,13.02
2018-05-17T03:30:29.402Z,12.99
2018-05-17T03:32:55.265Z,12.77
2018-05-17T03:35:21.112Z,12.69
2018-05-17T03:37:46.956Z,12.60
2018-05-17T03:40:12.817Z,12.51
2018-05-17T03:42:38.641Z,12.43
2018-05-17T03:45:04.482Z,12.23
2018-05-17T03:47:30.305Z,12.39
2018-05-17T03:49:56.125Z,12.56
2018-05-17T03:52:21.950Z,12.69
2018-05-17T03:54:47.812Z,12.80
2018-05-17T03:57:13.684Z,12.85
2018-05-17T03:59:39.505Z,12.95
2018-05-17T04:02:17.792Z,12.92
2018-05-17T04:04:55.943Z,12.96
2018-05-17T04:07:21.793Z,12.93
2018-05-17T04:09:47.656Z,12.82
2018-05-17T04:12:13.700Z,12.67
2018-05-17T04:14:39.564Z,12.52
2018-05-17T04:17:05.409Z,12.48
2018-05-17T04:19:31.261Z,12.69
2018-05-17T04:21:57.113Z,12.75
2018-05-17T04:24:22.998Z,12.57
2018-05-17T04:26:48.893Z,12.69
2018-05-17T04:29:14.776Z,12.94
2018-05-17T04:31:40.647Z,12.90
2018-05-17T04:34:06.521Z,12.77
2018-05-17T04:36:32.443Z,12.75
2018-05-17T04:38:58.287Z,12.66
2018-05-17T04:41:24.159Z,12.61
2018-05-17T04:43:50.027Z,12.68
2018-05-17T04:46:15.845Z,12.85
2018-05-17T04:48:41.716Z,13.07
2018-05-17T04:51:07.553Z,13.14
2018-05-17T04:53:33.431Z,13.39
2018-05-17T04:55:59.310Z,13.45
2018-05-17T04:58:25.152Z,13.56
2018-05-17T05:00:51.007Z,13.38
2018-05-17T05:03:16.852Z,13.46
2018-05-17T05:05:42.693Z,13.57
2018-05-17T05:08:08.509Z,13.59
2018-05-17T05:10:34.384Z,13.54
2018-05-17T05:13:00.231Z,13.52
2018-05-17T05:15:26.131Z,13.49
2018-05-17T05:17:52.066Z,13.35
2018-05-17T05:20:17.829Z,13.41
2018-05-17T05:22:43.650Z,13.29
2018-05-17T05:25:09.512Z,13.45
2018-05-17T05:27:35.374Z,13.63
2018-05-17T05:30:01.248Z,13.69
2018-05-17T05:32:27.116Z,13.81
2018-05-17T05:34:52.944Z,13.64
2018-05-17T05:37:18.893Z,13.41
2018-05-17T05:39:44.732Z,13.53
2018-05-17T05:42:10.580Z,13.50
2018-05-17T05:44:36.470Z,13.87
2018-05-17T05:47:02.393Z,13.81
2018-05-17T05:49:28.323Z,13.73
2018-05-17T05:51:54.117Z,13.58
2018-05-17T05:54:19.948Z,13.90
2018-05-17T05:56:45.816Z,13.71
2018-05-17T05:59:11.646Z,13.89
2018-05-17T06:01:37.505Z,13.96
2018-05-17T06:04:03.349Z,14.00
2018-05-17T06:06:29.185Z,13.98
2018-05-17T06:08:55.067Z,14.09
2018-05-17T06:11:20.939Z,13.95
2018-05-17T06:13:46.832Z,14.21
2018-05-17T06:16:12.705Z,14.41
2018-05-17T06:18:38.537Z,14.72
2018-05-17T06:21:04.383Z,14.63
2018-05-17T06:23:30.232Z,14.82
2018-05-17T06:25:56.074Z,14.87
2018-05-17T06:28:21.916Z,14.77
2018-05-17T06:30:47.775Z,14.54
2018-05-17T06:33:13.674Z,14.44
2018-05-17T06:35:39.525Z,14.46
2018-05-17T06:38:05.429Z,14.45
2018-05-17T06:40:31.278Z,14.48
2018-05-17T06:42:57.109Z,14.50
2018-05-17T06:45:22.989Z,14.78
2018-05-17T06:47:48.851Z,14.97
2018-05-17T06:50:14.741Z,14.49
2018-05-17T06:52:40.608Z,14.61
2018-05-17T06:55:06.466Z,14.57
2018-05-17T06:57:32.297Z,14.66
2018-05-17T06:59:58.139Z,14.43
2018-05-17T07:02:24.008Z,14.49
2018-05-17T07:04:49.911Z,14.47
2018-05-17T07:07:15.776Z,14.66
2018-05-17T07:09:41.617Z,14.64
2018-05-17T07:12:07.472Z,14.83
2018-05-17T07:14:33.333Z,14.93
2018-05-17T07:16:59.189Z,15.05
2018-05-17T07:19:25.023Z,15.04
2018-05-17T07:21:50.858Z,15.03
2018-05-17T07:24:16.721Z,15.36
2018-05-17T07:26:42.604Z,15.07
2018-05-17T07:29:08.480Z,15.34
2018-05-17T07:31:34.341Z,15.35
2018-05-17T07:34:00.284Z,15.02
2018-05-17T07:36:26.153Z,14.95
2018-05-17T07:38:52.005Z,14.98
2018-05-17T07:41:17.855Z,15.11
2018-05-17T07:43:43.716Z,14.85
2018-05-17T07:46:09.565Z,14.99
2018-05-17T07:48:35.400Z,15.07
2018-05-17T07:51:01.245Z,15.21
2018-05-17T07:53:27.082Z,15.16
2018-05-17T07:55:52.925Z,14.90
2018-05-17T07:58:18.797Z,14.92
2018-05-17T08:00:44.688Z,15.27
2018-05-17T08:03:10.553Z,15.24
2018-05-17T08:05:36.429Z,15.46
2018-05-17T08:08:02.315Z,15.63
2018-05-17T08:10:28.192Z,15.19
2018-05-17T08:12:54.031Z,15.27
2018-05-17T08:15:19.844Z,15.18
2018-05-17T08:17:45.680Z,15.05
2018-05-17T08:20:11.514Z,15.18
2018-05-17T08:22:37.384Z,14.93
2018-05-17T08:25:03.411Z,14.93
2018-05-17T08:27:29.308Z,15.07
2018-05-17T08:29:55.157Z,15.24
2018-05-17T08:32:21.018Z,15.18
2018-05-17T08:34:46.888Z,15.31
2018-05-17T08:37:12.800Z,15.62
2018-05-17T08:39:38.653Z,15.70
2018-05-17T08:42:04.551Z,15.53
2018-05-17T08:44:30.412Z,15.68
2018-05-17T08:46:56.249Z,15.83
2018-05-17T08:49:22.108Z,16.19
2018-05-17T08:51:47.975Z,16.09
2018-05-17T08:54:13.865Z,16.15
2018-05-17T08:56:39.736Z,16.01
2018-05-17T08:59:05.616Z,16.60
2018-05-17T09:01:31.488Z,16.50
2018-05-17T09:03:57.333Z,16.60
2018-05-17T09:06:23.193Z,16.46
2018-05-17T09:08:49.053Z,16.71
2018-05-17T09:11:14.889Z,16.82
2018-05-17T09:13:40.792Z,16.78
2018-05-17T09:16:06.632Z,16.65
2018-05-17T09:18:32.525Z,16.97
2018-05-17T09:20:58.389Z,16.79
2018-05-17T09:23:24.220Z,17.04
2018-05-17T09:25:50.053Z,17.10
2018-05-17T09:28:15.921Z,17.29
2018-05-17T09:30:41.779Z,17.31
2018-05-17T09:33:07.649Z,17.45
2018-05-17T09:35:33.535Z,17.31
2018-05-17T09:37:59.444Z,16.75
2018-05-17T09:40:25.319Z,16.69
2018-05-17T09:42:51.240Z,16.64
2018-05-17T09:45:17.094Z,16.65
2018-05-17T09:47:43.015Z,16.01
2018-05-17T09:50:08.784Z,16.35
2018-05-17T09:52:34.630Z,16.08
2018-05-17T09:55:00.506Z,16.45
2018-05-17T09:57:26.369Z,16.47
2018-05-17T09:59:52.198Z,16.78
2018-05-17T10:02:18.054Z,17.18
2018-05-17T10:04:43.931Z,16.64
2018-05-17T10:07:09.780Z,16.92
2018-05-17T10:09:35.651Z,16.83
2018-05-17T10:12:01.461Z,16.92
2018-05-17T10:14:27.305Z,17.32
2018-05-17T10:16:53.153Z,17.58
2018-05-17T10:19:18.997Z,17.80
2018-05-17T10:21:44.857Z,18.01
2018-05-17T10:24:10.712Z,17.45
2018-05-17T10:26:36.558Z,17.00
2018-05-17T10:29:02.484Z,16.95
2018-05-17T10:31:28.337Z,16.73
2018-05-17T10:33:54.200Z,16.77
2018-05-17T10:36:20.053Z,16.61
2018-05-17T10:38:45.927Z,16.70
2018-05-17T10:41:11.823Z,16.72
2018-05-17T10:43:37.704Z,16.82
2018-05-17T10:46:03.598Z,16.88
2018-05-17T10:48:29.441Z,16.93
2018-05-17T10:50:55.337Z,17.02
2018-05-17T10:53:21.190Z,17.09
2018-05-17T10:55:47.072Z,16.91
2018-05-17T10:58:12.925Z,16.95
2018-05-17T11:00:38.769Z,17.27
2018-05-17T11:03:04.643Z,17.08
2018-05-17T11:05:30.493Z,17.29
2018-05-17T11:07:56.341Z,17.28
2018-05-17T11:10:22.177Z,17.51
2018-05-17T11:12:48.038Z,17.34
2018-05-17T11:15:13.923Z,17.79
2018-05-17T11:17:39.783Z,17.31
2018-05-17T11:20:05.663Z,17.60
2018-05-17T11:22:31.528Z,17.14
2018-05-17T11:24:57.373Z,17.40
2018-05-17T11:27:23.304Z,17.29
2018-05-17T11:29:49.190Z,17.66
2018-05-17T11:32:15.038Z,17.33
2018-05-17T11:34:40.895Z,17.06
2018-05-17T11:37:06.787Z,17.19
2018-05-17T11:39:32.636Z,16.99
2018-05-17T11:41:58.501Z,16.67
2018-05-17T11:44:24.336Z,16.93
2018-05-17T11:46:50.210Z,17.01
2018-05-17T11:49:16.111Z,17.17
2018-05-17T11:51:41.960Z,17.02
2018-05-17T11:54:07.836Z,17.17
2018-05-17T11:56:33.673Z,17.71
2018-05-17T11:58:59.515Z,17.72
2018-05-17T12:01:25.367Z,17.68
2018-05-17T12:03:51.272Z,17.48
2018-05-17T12:06:17.128Z,17.40
2018-05-17T12:08:42.969Z,17.40
2018-05-17T12:11:08.844Z,17.15
2018-05-17T12:13:34.700Z,16.91
2018-05-17T12:16:00.542Z,16.89
2018-05-17T12:18:26.371Z,17.10
2018-05-17T12:20:52.214Z,17.27
2018-05-17T12:23:18.077Z,17.27
2018-05-17T12:25:43.921Z,17.40
2018-05-17T12:28:09.747Z,17.54
2018-05-17T12:30:35.584Z,17.36
2018-05-17T12:33:01.437Z,17.63
2018-05-17T12:35:27.305Z,17.31
2018-05-17T12:37:53.189Z,17.47
2018-05-17T12:40:19.053Z,17.71
2018-05-17T12:42:45.019Z,18.11
2018-05-17T12:45:10.825Z,18.42
2018-05-17T12:47:36.697Z,17.89
2018-05-17T12:50:02.592Z,17.69
2018-05-17T12:52:28.490Z,18.10
2018-05-17T12:54:54.328Z,18.01
2018-05-17T12:57:20.267Z,17.75
2018-05-17T12:59:46.211Z,17.68
2018-05-17T13:02:12.069Z,17.71
2018-05-17T13:04:37.948Z,17.65
2018-05-17T13:07:03.870Z,17.72
2018-05-17T13:09:29.714Z,17.68
2018-05-17T13:11:55.596Z,18.00
2018-05-17T13:14:21.437Z,17.63
2018-05-17T13:16:47.316Z,17.94
2018-05-17T13:19:13.192Z,17.75
2018-05-17T13:21:39.041Z,17.73
2018-05-17T13:24:04.939Z,17.73
2018-05-17T13:26:30.839Z,18.02
2018-05-17T13:28:56.710Z,17.92
2018-05-17T13:31:22.577Z,18.17
2018-05-17T13:33:48.433Z,17.86
2018-05-17T13:36:14.323Z,17.88
2018-05-17T13:38:40.217Z,17.92
2018-05-17T13:41:06.101Z,18.20
2018-05-17T13:43:31.994Z,17.99
2018-05-17T13:45:57.856Z,18.21
2018-05-17T13:48:23.751Z,18.02
2018-05-17T13:50:49.588Z,18.12
2018-05-17T13:53:15.472Z,18.25
2018-05-17T13:55:41.344Z,18.30
2018-05-17T13:58:07.221Z,18.15
2018-05-17T14:00:33.151Z,18.64
2018-05-17T14:02:59.028Z,18.61
2018-05-17T14:05:24.872Z,18.44
2018-05-17T14:07:50.728Z,18.55
2018-05-17T14:10:16.589Z,18.24
2018-05-17T14:12:42.421Z,18.07
2018-05-17T14:15:08.443Z,18.75
2018-05-17T14:17:34.208Z,18.12
2018-05-17T14:20:00.049Z,17.85
2018-05-17T14:22:25.933Z,18.14
2018-05-17T14:24:51.777Z,18.53
2018-05-17T14:27:17.648Z,18.91
2018-05-17T14:29:43.492Z,18.87
2018-05-17T14:32:09.362Z,18.20
2018-05-17T14:34:35.548Z,18.67
2018-05-17T14:37:01.444Z,19.11
2018-05-17T14:39:27.325Z,18.34
2018-05-17T14:41:53.212Z,18.72
2018-05-17T14:44:19.069Z,18.51
2018-05-17T14:46:45.812Z,18.40
2018-05-17T14:49:11.697Z,18.21
2018-05-17T14:51:37.541Z,18.19
2018-05-17T14:54:03.409Z,18.06
2018-05-17T14:56:29.274Z,18.39
2018-05-17T14:58:55.201Z,18.48
2018-05-17T15:01:21.162Z,18.81
2018-05-17T15:03:46.991Z,18.87
2018-05-17T15:06:12.865Z,18.58
2018-05-17T15:08:38.835Z,19.10
2018-05-17T15:11:04.577Z,19.23
2018-05-17T15:13:30.447Z,19.11
2018-05-17T15:15:56.324Z,18.91
2018-05-17T15:18:22.180Z,18.60
2018-05-17T15:20:48.034Z,17.82
2018-05-17T15:23:13.874Z,18.11
2018-05-17T15:25:39.757Z,18.57
2018-05-17T15:28:05.660Z,18.54
2018-05-17T15:30:31.597Z,18.42
2018-05-17T15:32:57.469Z,18.40
2018-05-17T15:35:23.446Z,18.36
2018-05-17T15:37:49.313Z,18.34
2018-05-17T15:40:15.172Z,18.40
2018-05-17T15:42:41.100Z,18.81
2018-05-17T15:45:06.980Z,18.65
2018-05-17T15:47:32.872Z,19.02
2018-05-17T15:49:58.716Z,18.83
2018-05-17T15:52:24.609Z,18.60
2018-05-17T15:54:50.530Z,18.52
2018-05-17T15:57:16.388Z,18.47
2018-05-17T15:59:42.275Z,18.61
2018-05-17T16:02:08.184Z,18.77
2018-05-17T16:04:34.033Z,18.80
2018-05-17T16:06:59.921Z,18.56
2018-05-17T16:09:25.809Z,18.95
2018-05-17T16:11:51.696Z,19.34
2018-05-17T16:14:17.564Z,19.39
2018-05-17T16:16:43.445Z,19.30
2018-05-17T16:19:09.334Z,19.23
2018-05-17T16:21:35.192Z,19.22
2018-05-17T16:24:01.053Z,19.23
2018-05-17T16:26:26.948Z,19.13
2018-05-17T16:28:52.871Z,19.12
2018-05-17T16:31:18.745Z,18.74
2018-05-17T16:33:44.630Z,18.79
2018-05-17T16:36:10.490Z,18.49
2018-05-17T16:38:36.329Z,18.66
2018-05-17T16:41:02.310Z,18.54
2018-05-17T16:43:28.103Z,18.27
2018-05-17T16:45:54.112Z,18.81
2018-05-17T16:48:20.062Z,18.70
2018-05-17T16:50:45.895Z,18.47
2018-05-17T16:53:11.815Z,18.60
2018-05-17T16:55:37.673Z,18.73
2018-05-17T16:58:03.581Z,18.78
2018-05-17T17:00:29.527Z,18.85
2018-05-17T17:02:55.340Z,19.01
2018-05-17T17:05:21.232Z,19.04
2018-05-17T17:07:47.133Z,18.67
2018-05-17T17:10:12.991Z,18.70
2018-05-17T17:12:38.894Z,18.42
2018-05-17T17:15:04.765Z,18.31
2018-05-17T17:17:30.651Z,18.33
2018-05-17T17:19:56.583Z,18.67
2018-05-17T17:22:22.464Z,18.91
2018-05-17T17:24:48.560Z,18.84
2018-05-17T17:27:14.421Z,18.94
2018-05-17T17:29:40.300Z,18.78
2018-05-17T17:32:06.229Z,18.55
2018-05-17T17:34:32.139Z,18.53
2018-05-17T17:36:58.002Z,18.86
2018-05-17T17:39:23.898Z,18.98
2018-05-17T17:41:49.905Z,18.73
2018-05-17T17:44:15.773Z,18.79
2018-05-17T17:46:41.624Z,18.89
2018-05-17T17:49:07.535Z,18.84
2018-05-17T17:51:33.411Z,18.87
2018-05-17T17:53:59.265Z,18.74
2018-05-17T17:56:25.101Z,18.44
2018-05-17T17:58:50.945Z,18.25
2018-05-17T18:01:16.917Z,18.22
2018-05-17T18:03:42.790Z,18.12
2018-05-17T18:06:08.702Z,18.04
2018-05-17T18:08:34.571Z,18.01
2018-05-17T18:11:00.422Z,18.07
2018-05-17T18:13:26.253Z,17.97
2018-05-17T18:15:52.248Z,17.87
2018-05-17T18:18:18.117Z,17.58
2018-05-17T18:20:44.044Z,17.64
2018-05-17T18:23:09.913Z,17.66
2018-05-17T18:25:35.753Z,17.73
2018-05-17T18:28:01.645Z,17.46
2018-05-17T18:30:27.580Z,17.51
2018-05-17T18:32:53.625Z,17.52
2018-05-17T18:35:19.514Z,17.21
2018-05-17T18:37:45.404Z,17.34
2018-05-17T18:40:11.290Z,17.05
2018-05-17T18:42:37.139Z,16.91
2018-05-17T18:45:03.094Z,16.73
2018-05-17T18:47:28.979Z,17.00
2018-05-17T18:49:54.935Z,16.93
2018-05-17T18:52:20.843Z,16.96
2018-05-17T18:54:46.729Z,16.95
2018-05-17T18:57:12.600Z,16.85
2018-05-17T18:59:38.499Z,16.71
2018-05-17T19:02:04.445Z,16.47
2018-05-17T19:04:30.329Z,16.53
2018-05-17T19:06:56.252Z,16.53
2018-05-17T19:09:22.132Z,16.41
2018-05-17T19:11:48.052Z,16.45
2018-05-17T19:14:13.967Z,16.36
2018-05-17T19:16:39.816Z,16.45
2018-05-17T19:19:05.680Z,16.68
2018-05-17T19:21:38.337Z,16.64
2018-05-17T19:24:04.244Z,16.67
2018-05-17T19:26:30.101Z,16.30
2018-05-17T19:28:55.969Z,16.25
2018-05-17T19:31:21.883Z,16.32
2018-05-17T19:33:47.857Z,16.22
2018-05-17T19:36:13.700Z,16.03
2018-05-17T19:38:39.675Z,16.10
2018-05-17T19:41:05.525Z,16.13
2018-05-17T19:43:31.402Z,16.07
2018-05-17T19:45:57.253Z,16.02
2018-05-17T19:48:23.166Z,16.01
2018-05-17T19:50:49.036Z,15.91
2018-05-17T19:53:15.026Z,15.88
2018-05-17T19:55:41.250Z,15.77
2018-05-17T19:58:07.129Z,15.69
2018-05-17T20:00:32.997Z,15.61
2018-05-17T20:02:58.836Z,15.63
2018-05-17T20:05:24.738Z,15.70
2018-05-17T20:07:50.587Z,15.47
2018-05-17T20:10:16.456Z,15.25
2018-05-17T20:12:42.301Z,15.31
2018-05-17T20:15:08.150Z,15.46
2018-05-17T20:17:34.004Z,15.47
2018-05-17T20:19:59.851Z,15.41
2018-05-17T20:22:25.692Z,15.53
2018-05-17T20:24:51.554Z,15.59
2018-05-17T20:27:17.428Z,15.74
2018-05-17T20:29:43.392Z,15.83
2018-05-17T20:32:09.264Z,15.61
2018-05-17T20:34:35.135Z,15.52
2018-05-17T20:37:01.100Z,15.70
2018-05-17T20:39:26.983Z,15.66
2018-05-17T20:41:52.844Z,15.20
2018-05-17T20:44:18.724Z,15.06
2018-05-17T20:46:44.610Z,14.96
2018-05-17T20:49:10.523Z,14.73
2018-05-17T20:51:36.338Z,14.55
2018-05-17T20:54:02.223Z,14.62
2018-05-17T20:56:28.107Z,14.70
2018-05-17T20:58:53.978Z,14.78
2018-05-17T21:01:19.844Z,14.72
2018-05-17T21:03:45.725Z,14.30
2018-05-17T21:06:11.553Z,14.34
2018-05-17T21:08:37.408Z,14.18
2018-05-17T21:11:03.242Z,14.13
2018-05-17T21:13:29.076Z,14.21
2018-05-17T21:15:54.945Z,14.08
2018-05-17T21:18:20.797Z,14.16
2018-05-17T21:20:46.669Z,14.02
2018-05-17T21:23:12.510Z,13.85
2018-05-17T21:25:38.353Z,13.67
2018-05-17T21:28:04.188Z,13.71
2018-05-17T21:30:30.079Z,13.67
2018-05-17T21:32:55.933Z,13.93
2018-05-17T21:35:21.792Z,13.88
2018-05-17T21:37:47.661Z,13.82
2018-05-17T21:40:13.550Z,13.78
2018-05-17T21:42:39.380Z,13.91
2018-05-17T21:45:05.201Z,13.95
2018-05-17T21:47:31.117Z,13.98
2018-05-17T21:49:56.954Z,14.03
2018-05-17T21:52:22.817Z,14.09
2018-05-17T21:54:48.679Z,13.88
2018-05-17T21:57:16.448Z,13.81
2018-05-17T21:59:42.293Z,13.97
2018-05-17T22:02:08.125Z,13.89
2018-05-17T22:04:33.965Z,13.83
2018-05-17T22:06:59.785Z,13.51
2018-05-17T22:09:25.628Z,13.57
2018-05-17T22:11:51.458Z,13.63
2018-05-17T22:14:17.289Z,13.39
2018-05-17T22:16:43.160Z,13.43
2018-05-17T22:19:09.008Z,13.38
2018-05-17T22:21:34.873Z,13.34
2018-05-17T22:24:00.741Z,13.13
2018-05-17T22:26:26.620Z,12.91
2018-05-17T22:28:52.480Z,12.92
2018-05-17T22:31:18.314Z,13.09
2018-05-17T22:33:44.165Z,13.11
2018-05-17T22:36:10.045Z,13.24
2018-05-17T22:38:35.889Z,13.14
2018-05-17T22:41:01.784Z,12.27
2018-05-17T22:43:27.648Z,12.17
2018-05-17T22:45:53.540Z,12.18
2018-05-17T22:48:19.423Z,11.76
2018-05-17T22:50:45.295Z,11.91
2018-05-17T22:53:11.168Z,11.90
2018-05-17T22:55:37.036Z,12.32
2018-05-17T22:58:15.306Z,12.41
2018-05-17T23:00:41.159Z,12.44
2018-05-17T23:03:07.018Z,12.41
2018-05-17T23:05:32.874Z,12.45
2018-05-17T23:07:58.706Z,12.70
2018-05-17T23:10:24.597Z,12.49
2018-05-17T23:12:50.442Z,12.19
2018-05-17T23:15:16.292Z,12.08
2018-05-17T23:17:42.122Z,11.95
2018-05-17T23:20:08.007Z,11.61
2018-05-17T23:22:35.753Z,11.85
2018-05-17T23:25:01.646Z,11.97
2018-05-17T23:27:27.490Z,12.05
2018-05-17T23:29:53.325Z,12.00
2018-05-17T23:32:19.158Z,11.76
2018-05-17T23:34:44.994Z,11.84
2018-05-17T23:37:18.069Z,11.89
2018-05-17T23:39:43.905Z,11.78
2018-05-17T23:42:09.757Z,11.91
2018-05-17T23:44:36.611Z,12.09
2018-05-17T23:47:02.506Z,12.11
2018-05-17T23:49:28.389Z,12.20
2018-05-17T23:51:54.253Z,12.02
2018-05-17T23:54:20.123Z,12.11
2018-05-17T23:56:46.014Z,11.88
2018-05-17T23:59:11.861Z,11.60
